Time;durP1;ratioP1;P1;durP2;ratioP2;P2;SDS_P1;SDS_P2;PMS_P1;PMS_P2;Temp;Humidity;BMP_temperature;BMP_pressure;BME280_temperature;BME280_humidity;BME280_pressure;Samples;Min_cycle;Max_cycle;Signal;HPM_P1;HPM_P2
2021/07/12 00:02:08;;;;;;;11.70;10.80;;;;;;;;;;5070705;28;20883;-48
2021/07/12 00:04:34;;;;;;;12.00;11.00;;;;;;;;;;5069989;28;20404;-49
2021/07/12 00:07:00;;;;;;;15.37;10.73;;;;;;;;;;5070230;28;20391;-48
2021/07/12 00:09:26;;;;;;;13.80;12.60;;;;;;;;;;5070663;28;20378;-48
2021/07/12 00:11:52;;;;;;;13.70;12.40;;;;;;;;;;5070108;28;20870;-49
2021/07/12 00:14:18;;;;;;;12.27;11.07;;;;;;;;;;5072566;28;20459;-48
2021/07/12 00:16:44;;;;;;;13.30;12.10;;;;;;;;;;5073630;28;21011;-49
2021/07/12 00:19:10;;;;;;;12.40;11.40;;;;;;;;;;5073817;28;20415;-49
2021/07/12 00:21:36;;;;;;;12.70;11.50;;;;;;;;;;5073570;28;20400;-48
2021/07/12 00:24:02;;;;;;;13.37;12.33;;;;;;;;;;5073614;28;20379;-48
2021/07/12 00:26:28;;;;;;;13.70;12.40;;;;;;;;;;5073533;28;20417;-49
2021/07/12 00:28:54;;;;;;;12.50;11.30;;;;;;;;;;5073682;28;20411;-49
2021/07/12 00:31:20;;;;;;;12.43;11.43;;;;;;;;;;5073440;28;20443;-49
2021/07/12 00:33:46;;;;;;;13.37;12.27;;;;;;;;;;5073257;28;20467;-49
2021/07/12 00:36:12;;;;;;;12.30;11.20;;;;;;;;;;5073209;28;20386;-49
2021/07/12 00:38:38;;;;;;;13.83;12.40;;;;;;;;;;5073315;28;20400;-48
2021/07/12 00:41:04;;;;;;;13.77;12.40;;;;;;;;;;5073520;28;20435;-48
2021/07/12 00:43:30;;;;;;;14.20;13.00;;;;;;;;;;5073453;28;20401;-49
2021/07/12 00:45:56;;;;;;;14.80;13.47;;;;;;;;;;5073326;28;20443;-48
2021/07/12 00:48:22;;;;;;;15.20;13.90;;;;;;;;;;5073159;28;20448;-48
2021/07/12 00:50:48;;;;;;;14.83;13.03;;;;;;;;;;5073310;28;20388;-49
2021/07/12 00:53:15;;;;;;;16.87;13.23;;;;;;;;;;5073020;28;20381;-49
2021/07/12 00:55:43;;;;;;;13.17;12.07;;;;;;;;;;5073362;28;20474;-48
2021/07/12 00:58:09;;;;;;;15.00;13.40;;;;;;;;;;5073002;28;20397;-49
2021/07/12 01:00:36;;;;;;;15.37;12.63;;;;;;;;;;5072754;28;20853;-49
2021/07/12 01:03:02;;;;;;;14.90;13.40;;;;;;;;;;5072512;28;20379;-48
2021/07/12 01:05:29;;;;;;;14.93;13.60;;;;;;;;;;5072209;28;20411;-48
2021/07/12 01:07:55;;;;;;;15.13;12.60;;;;;;;;;;5072961;28;20518;-49
2021/07/12 01:10:22;;;;;;;18.23;12.90;;;;;;;;;;5072965;28;20457;-49
2021/07/12 01:12:52;;;;;;;13.97;12.33;;;;;;;;;;5072724;28;20403;-49
2021/07/12 01:15:21;;;;;;;14.63;13.33;;;;;;;;;;5072571;28;20458;-49
2021/07/12 01:18:03;;;;;;;16.83;14.10;;;;;;;;;;5072459;28;20834;-49
2021/07/12 01:20:36;;;;;;;15.53;13.93;;;;;;;;;;5072765;28;20776;-49
2021/07/12 01:23:07;;;;;;;13.57;12.37;;;;;;;;;;5072671;28;20381;-49
2021/07/12 01:25:36;;;;;;;15.20;12.20;;;;;;;;;;5072312;28;20387;-48
2021/07/12 01:28:17;;;;;;;13.97;11.90;;;;;;;;;;5072632;28;20430;-48
2021/07/12 01:30:57;;;;;;;14.47;12.03;;;;;;;;;;5072917;28;20371;-48
2021/07/12 01:33:33;;;;;;;16.07;14.37;;;;;;;;;;5072337;28;20382;-48
2021/07/12 01:36:03;;;;;;;14.73;13.27;;;;;;;;;;5072175;28;20792;-48
2021/07/12 01:38:29;;;;;;;14.27;12.70;;;;;;;;;;5072329;28;20920;-48
2021/07/12 01:41:05;;;;;;;16.23;14.67;;;;;;;;;;5072651;28;20409;-49
2021/07/12 01:43:38;;;;;;;16.00;14.60;;;;;;;;;;5072295;28;20810;-49
2021/07/12 01:46:09;;;;;;;14.83;13.20;;;;;;;;;;5072392;28;20369;-48
2021/07/12 01:48:54;;;;;;;15.97;14.20;;;;;;;;;;5072263;28;20380;-48
2021/07/12 01:51:25;;;;;;;18.27;14.10;;;;;;;;;;5072172;28;20889;-48
2021/07/12 01:53:56;;;;;;;14.43;12.93;;;;;;;;;;5071921;28;20447;-48
2021/07/12 01:56:34;;;;;;;13.53;12.30;;;;;;;;;;5072267;28;20377;-49
2021/07/12 01:59:22;;;;;;;15.67;13.00;;;;;;;;;;5072431;28;20836;-49
2021/07/12 02:01:49;;;;;;;16.03;14.37;;;;;;;;;;5072358;28;20407;-48
2021/07/12 02:04:15;;;;;;;15.90;14.20;;;;;;;;;;5071996;28;20469;-48
2021/07/12 02:06:42;;;;;;;14.93;13.53;;;;;;;;;;5071859;28;20445;-48
2021/07/12 02:09:09;;;;;;;15.07;13.57;;;;;;;;;;5072015;28;20400;-48
2021/07/12 02:11:37;;;;;;;15.87;14.30;;;;;;;;;;5071570;28;20377;-48
2021/07/12 02:14:03;;;;;;;15.57;13.93;;;;;;;;;;5071564;28;20432;-49
2021/07/12 02:16:30;;;;;;;15.30;14.00;;;;;;;;;;5071472;28;20445;-48
2021/07/12 02:18:57;;;;;;;15.70;14.30;;;;;;;;;;5071801;28;20407;-48
2021/07/12 02:21:23;;;;;;;17.27;15.40;;;;;;;;;;5071585;28;20823;-48
2021/07/12 02:23:49;;;;;;;16.53;14.80;;;;;;;;;;5071286;28;20435;-48
2021/07/12 02:26:16;;;;;;;16.03;14.63;;;;;;;;;;5071222;28;20430;-48
2021/07/12 02:28:44;;;;;;;17.97;15.70;;;;;;;;;;5071724;28;20796;-48
2021/07/12 02:31:15;;;;;;;16.43;14.40;;;;;;;;;;5071327;28;20914;-49
2021/07/12 02:33:42;;;;;;;16.13;14.60;;;;;;;;;;5053246;28;20432;-48
2021/07/12 02:36:08;;;;;;;15.63;14.03;;;;;;;;;;5070684;28;20411;-49
2021/07/12 02:38:36;;;;;;;15.40;13.87;;;;;;;;;;5071185;28;20381;-48
2021/07/12 02:41:02;;;;;;;14.83;13.33;;;;;;;;;;5071214;28;20468;-49
2021/07/12 02:43:28;;;;;;;16.60;14.93;;;;;;;;;;5071469;28;20398;-48
2021/07/12 02:45:55;;;;;;;20.20;16.03;;;;;;;;;;5070967;28;20414;-48
2021/07/12 02:48:21;;;;;;;17.43;15.20;;;;;;;;;;5071237;28;20447;-48
2021/07/12 02:50:50;;;;;;;18.53;15.23;;;;;;;;;;5071099;28;20762;-48
2021/07/12 02:53:21;;;;;;;17.33;15.70;;;;;;;;;;5070837;28;20923;-49
2021/07/12 02:55:47;;;;;;;19.63;15.80;;;;;;;;;;5070728;28;20810;-48
2021/07/12 02:58:13;;;;;;;21.23;15.83;;;;;;;;;;5070906;28;20439;-48
2021/07/12 03:00:39;;;;;;;19.83;16.20;;;;;;;;;;5071201;28;20953;-49
2021/07/12 03:03:05;;;;;;;18.10;16.23;;;;;;;;;;5070945;28;20400;-49
2021/07/12 03:05:31;;;;;;;22.00;15.73;;;;;;;;;;5070686;28;20460;-48
2021/07/12 03:08:06;;;;;;;23.87;15.30;;;;;;;;;;5070507;28;20397;-49
2021/07/12 03:10:34;;;;;;;17.43;15.63;;;;;;;;;;5070813;28;20853;-49
2021/07/12 03:13:04;;;;;;;20.27;15.57;;;;;;;;;;5070628;28;20369;-49
2021/07/12 03:15:41;;;;;;;19.40;15.27;;;;;;;;;;5070601;28;20429;-48
2021/07/12 03:18:10;;;;;;;17.53;15.27;;;;;;;;;;5070395;28;20418;-48
2021/07/12 03:20:38;;;;;;;17.10;15.33;;;;;;;;;;5070961;28;20573;-48
2021/07/12 03:23:04;;;;;;;16.60;14.80;;;;;;;;;;5070702;28;20378;-49
2021/07/12 03:25:35;;;;;;;17.50;15.70;;;;;;;;;;5070374;28;20764;-48
2021/07/12 03:28:01;;;;;;;19.90;15.67;;;;;;;;;;5070403;28;20771;-48
2021/07/12 03:30:29;;;;;;;18.63;14.57;;;;;;;;;;5071128;28;20379;-49
2021/07/12 03:32:56;;;;;;;17.97;14.60;;;;;;;;;;5070473;28;20393;-48
2021/07/12 03:35:23;;;;;;;18.37;15.03;;;;;;;;;;5070115;28;20849;-49
2021/07/12 03:37:50;;;;;;;17.70;15.90;;;;;;;;;;5070474;28;20416;-48
2021/07/12 03:40:17;;;;;;;16.70;15.00;;;;;;;;;;5070852;28;20459;-48
2021/07/12 03:42:44;;;;;;;16.27;14.60;;;;;;;;;;5070576;28;20721;-49
2021/07/12 03:45:10;;;;;;;17.93;15.40;;;;;;;;;;5070202;28;20382;-48
2021/07/12 03:47:38;;;;;;;16.27;14.47;;;;;;;;;;5070551;28;20423;-48
2021/07/12 03:50:12;;;;;;;18.50;15.27;;;;;;;;;;5074602;28;20468;-49
2021/07/12 03:52:42;;;;;;;16.23;14.83;;;;;;;;;;5074734;28;20853;-48
2021/07/12 03:55:08;;;;;;;17.80;16.03;;;;;;;;;;5074549;28;20421;-48
2021/07/12 03:57:34;;;;;;;18.33;16.43;;;;;;;;;;5074495;28;20397;-49
2021/07/12 04:00:00;;;;;;;18.10;15.77;;;;;;;;;;5074173;28;20407;-49
2021/07/12 04:02:26;;;;;;;18.23;16.10;;;;;;;;;;5074469;28;20386;-49
2021/07/12 04:04:52;;;;;;;22.37;17.17;;;;;;;;;;5073817;28;20484;-49
2021/07/12 04:07:18;;;;;;;17.87;16.13;;;;;;;;;;5074209;28;20425;-48
2021/07/12 04:09:44;;;;;;;18.30;16.50;;;;;;;;;;5074002;28;20887;-49
2021/07/12 04:12:10;;;;;;;18.70;15.10;;;;;;;;;;5074051;28;20861;-48
2021/07/12 04:14:36;;;;;;;16.23;14.77;;;;;;;;;;5074022;28;20484;-48
2021/07/12 04:17:02;;;;;;;17.37;15.57;;;;;;;;;;5073781;28;20446;-48
2021/07/12 04:19:28;;;;;;;17.17;15.37;;;;;;;;;;5074194;28;20481;-49
2021/07/12 04:21:54;;;;;;;18.40;16.20;;;;;;;;;;5073787;28;20453;-48
2021/07/12 04:24:20;;;;;;;18.23;16.50;;;;;;;;;;5073975;28;20834;-49
2021/07/12 04:26:46;;;;;;;18.83;16.93;;;;;;;;;;5073681;28;20893;-48
2021/07/12 04:29:12;;;;;;;19.20;17.20;;;;;;;;;;5073692;28;20478;-48
2021/07/12 04:31:38;;;;;;;17.23;15.33;;;;;;;;;;5073616;28;20412;-49
2021/07/12 04:34:04;;;;;;;18.47;16.53;;;;;;;;;;5073303;28;20443;-48
2021/07/12 04:36:30;;;;;;;18.83;17.00;;;;;;;;;;5055421;28;20799;-48
2021/07/12 04:38:59;;;;;;;19.27;17.40;;;;;;;;;;5073470;28;20388;-49
2021/07/12 04:41:24;;;;;;;20.17;16.40;;;;;;;;;;5073842;28;20431;-49
2021/07/12 04:43:51;;;;;;;24.30;17.03;;;;;;;;;;5073154;28;20389;-49
2021/07/12 04:46:16;;;;;;;18.40;16.50;;;;;;;;;;5073341;28;20538;-48
2021/07/12 04:48:43;;;;;;;17.80;16.00;;;;;;;;;;5073390;28;20487;-48
2021/07/12 04:51:09;;;;;;;21.80;17.40;;;;;;;;;;5073341;28;20438;-49
2021/07/12 04:53:35;;;;;;;17.23;15.47;;;;;;;;;;5073134;28;20748;-49
2021/07/12 04:56:02;;;;;;;18.43;16.63;;;;;;;;;;5073011;28;20519;-48
2021/07/12 04:58:31;;;;;;;17.23;15.40;;;;;;;;;;5072800;28;20420;-48
2021/07/12 05:00:58;;;;;;;17.97;15.77;;;;;;;;;;5073259;28;20385;-49
2021/07/12 05:03:30;;;;;;;29.17;17.90;;;;;;;;;;5072960;28;20378;-49
2021/07/12 05:05:57;;;;;;;21.87;16.90;;;;;;;;;;5073091;28;20387;-49
2021/07/12 05:08:22;;;;;;;18.60;16.67;;;;;;;;;;5072761;28;20431;-48
2021/07/12 05:10:49;;;;;;;20.53;18.30;;;;;;;;;;5072917;28;20386;-49
2021/07/12 05:13:15;;;;;;;28.80;18.90;;;;;;;;;;5072880;28;20379;-48
2021/07/12 05:15:41;;;;;;;20.73;17.20;;;;;;;;;;5072595;28;20998;-48
2021/07/12 05:18:07;;;;;;;21.20;17.60;;;;;;;;;;5072563;28;20427;-48
2021/07/12 05:20:34;;;;;;;21.37;16.90;;;;;;;;;;5072868;28;20780;-49
2021/07/12 05:23:01;;;;;;;21.23;17.27;;;;;;;;;;5072518;28;20409;-48
2021/07/12 05:25:27;;;;;;;19.03;16.27;;;;;;;;;;5072611;28;20457;-48
2021/07/12 05:27:53;;;;;;;17.77;16.17;;;;;;;;;;5072788;28;20395;-49
2021/07/12 05:30:19;;;;;;;17.00;15.10;;;;;;;;;;5072724;28;20375;-49
2021/07/12 05:32:45;;;;;;;17.63;15.83;;;;;;;;;;5072494;28;20378;-49
2021/07/12 05:35:12;;;;;;;17.97;16.17;;;;;;;;;;5072242;28;20466;-49
2021/07/12 05:37:38;;;;;;;18.30;16.50;;;;;;;;;;5072519;28;20399;-49
2021/07/12 05:40:04;;;;;;;16.30;14.60;;;;;;;;;;5072312;28;20771;-49
2021/07/12 05:42:30;;;;;;;17.73;15.80;;;;;;;;;;5072500;28;20892;-49
2021/07/12 05:44:56;;;;;;;18.10;16.20;;;;;;;;;;5072150;28;20383;-48
2021/07/12 05:47:22;;;;;;;17.10;15.40;;;;;;;;;;5073031;28;20562;-49
2021/07/12 05:49:48;;;;;;;16.53;14.83;;;;;;;;;;5072041;28;20397;-49
2021/07/12 05:52:14;;;;;;;19.47;16.20;;;;;;;;;;5072090;28;20886;-49
2021/07/12 05:54:40;;;;;;;16.10;14.40;;;;;;;;;;5071558;28;20456;-48
2021/07/12 05:57:06;;;;;;;17.80;16.00;;;;;;;;;;5071989;28;20431;-48
2021/07/12 05:59:33;;;;;;;17.77;16.07;;;;;;;;;;5071816;28;20477;-49
2021/07/12 06:01:59;;;;;;;16.60;14.80;;;;;;;;;;5071844;28;20396;-48
2021/07/12 06:04:26;;;;;;;17.00;15.40;;;;;;;;;;5071432;28;20892;-48
2021/07/12 06:06:52;;;;;;;17.53;15.67;;;;;;;;;;5071537;28;20435;-48
2021/07/12 06:09:18;;;;;;;17.03;15.43;;;;;;;;;;5053645;28;20598;-49
2021/07/12 06:11:44;;;;;;;22.10;16.20;;;;;;;;;;5070719;28;20925;-49
2021/07/12 06:14:10;;;;;;;18.83;15.90;;;;;;;;;;5071135;28;20997;-49
2021/07/12 06:16:35;;;;;;;18.60;16.60;;;;;;;;;;5071303;28;20879;-49
2021/07/12 06:19:01;;;;;;;23.23;16.90;;;;;;;;;;5071569;28;20397;-49
2021/07/12 06:21:27;;;;;;;19.77;16.50;;;;;;;;;;5071225;28;20408;-49
2021/07/12 06:23:53;;;;;;;21.57;16.47;;;;;;;;;;5071240;28;20525;-48
2021/07/12 06:26:19;;;;;;;19.17;15.67;;;;;;;;;;5071261;28;20407;-49
2021/07/12 06:28:45;;;;;;;18.17;16.37;;;;;;;;;;5071211;28;20405;-49
2021/07/12 06:31:11;;;;;;;15.03;13.53;;;;;;;;;;5071056;28;20711;-49
2021/07/12 06:33:37;;;;;;;14.07;12.67;;;;;;;;;;5070947;28;20440;-49
2021/07/12 06:36:03;;;;;;;16.47;14.87;;;;;;;;;;5071261;28;20399;-49
2021/07/12 06:38:31;;;;;;;16.17;12.40;;;;;;;;;;5071051;28;20396;-50
2021/07/12 06:40:57;;;;;;;14.87;13.20;;;;;;;;;;5070971;28;20400;-49
2021/07/12 06:43:23;;;;;;;15.37;13.77;;;;;;;;;;5071483;28;20396;-49
2021/07/12 06:45:49;;;;;;;20.30;14.70;;;;;;;;;;5071066;28;20923;-49
2021/07/12 06:48:15;;;;;;;22.07;13.17;;;;;;;;;;5070952;28;20829;-49
2021/07/12 06:50:41;;;;;;;19.73;13.30;;;;;;;;;;5070632;28;20408;-49
2021/07/12 06:53:07;;;;;;;14.57;12.70;;;;;;;;;;5070837;28;20404;-49
2021/07/12 06:55:33;;;;;;;14.17;12.60;;;;;;;;;;5070597;28;20459;-50
2021/07/12 06:58:00;;;;;;;11.80;10.70;;;;;;;;;;5070623;28;20419;-49
2021/07/12 07:00:26;;;;;;;11.57;10.50;;;;;;;;;;5070894;28;20396;-49
2021/07/12 07:02:53;;;;;;;11.50;10.40;;;;;;;;;;5070617;28;20407;-49
2021/07/12 07:05:19;;;;;;;15.33;10.43;;;;;;;;;;5070409;28;20931;-49
2021/07/12 07:07:45;;;;;;;11.17;9.90;;;;;;;;;;5070499;28;20929;-50
2021/07/12 07:10:11;;;;;;;11.63;10.53;;;;;;;;;;5070636;28;20458;-48
2021/07/12 07:12:37;;;;;;;11.57;10.60;;;;;;;;;;5070601;28;20430;-49
2021/07/12 07:15:04;;;;;;;10.87;9.77;;;;;;;;;;5070279;28;21000;-49
2021/07/12 07:17:29;;;;;;;10.60;9.57;;;;;;;;;;5070302;28;20957;-49
2021/07/12 07:19:55;;;;;;;11.10;10.00;;;;;;;;;;5070538;28;20423;-49
2021/07/12 07:22:21;;;;;;;10.47;9.50;;;;;;;;;;5070485;28;20418;-48
2021/07/12 07:24:48;;;;;;;9.10;8.20;;;;;;;;;;5070319;28;20411;-48
2021/07/12 07:27:15;;;;;;;9.93;8.80;;;;;;;;;;5070261;28;20468;-49
2021/07/12 07:29:41;;;;;;;9.63;8.80;;;;;;;;;;5070997;28;20446;-49
2021/07/12 07:32:07;;;;;;;10.17;9.23;;;;;;;;;;5070395;28;20409;-49
2021/07/12 07:34:33;;;;;;;11.23;10.17;;;;;;;;;;5070029;28;20537;-49
2021/07/12 07:36:59;;;;;;;10.53;9.73;;;;;;;;;;5070597;28;20444;-49
2021/07/12 07:39:25;;;;;;;8.87;8.10;;;;;;;;;;5070238;28;20443;-49
2021/07/12 07:41:52;;;;;;;9.77;8.87;;;;;;;;;;5070310;28;20400;-50
2021/07/12 07:44:18;;;;;;;9.13;8.33;;;;;;;;;;5069902;28;20785;-48
2021/07/12 07:46:44;;;;;;;8.63;7.83;;;;;;;;;;5070136;28;20527;-49
2021/07/12 07:49:11;;;;;;;9.83;8.80;;;;;;;;;;5068782;28;20430;-48
2021/07/12 07:51:37;;;;;;;8.43;7.73;;;;;;;;;;5050096;28;20782;-49
2021/07/12 07:54:06;;;;;;;9.30;7.30;;;;;;;;;;5049948;28;20458;-48
2021/07/12 07:56:32;;;;;;;7.40;6.70;;;;;;;;;;5050247;28;20429;-48
2021/07/12 07:58:58;;;;;;;8.07;7.47;;;;;;;;;;5050378;28;20972;-49
2021/07/12 08:01:25;;;;;;;9.00;8.27;;;;;;;;;;5050305;28;20429;-48
2021/07/12 08:03:51;;;;;;;8.57;7.93;;;;;;;;;;5050146;28;20567;-49
2021/07/12 08:06:17;;;;;;;9.00;8.20;;;;;;;;;;5050313;28;20394;-49
2021/07/12 08:08:44;;;;;;;7.40;6.20;;;;;;;;;;5050373;28;20398;-49
2021/07/12 08:11:10;;;;;;;7.57;7.00;;;;;;;;;;5050547;28;20875;-49
2021/07/12 08:13:36;;;;;;;9.40;7.30;;;;;;;;;;5050044;28;20403;-49
2021/07/12 08:16:03;;;;;;;6.00;5.60;;;;;;;;;;5049528;28;20404;-49
2021/07/12 08:18:29;;;;;;;6.50;6.00;;;;;;;;;;5050137;28;20421;-50
2021/07/12 08:20:55;;;;;;;6.50;5.90;;;;;;;;;;5049831;28;20921;-50
2021/07/12 08:23:23;;;;;;;6.17;5.77;;;;;;;;;;5050002;28;20759;-50
2021/07/12 08:25:49;;;;;;;9.43;6.27;;;;;;;;;;5049490;28;20972;-52
2021/07/12 08:28:15;;;;;;;6.37;5.80;;;;;;;;;;5069004;28;20510;-52
2021/07/12 08:30:41;;;;;;;7.33;6.40;;;;;;;;;;5069939;28;20936;-51
2021/07/12 08:33:07;;;;;;;5.73;5.33;;;;;;;;;;5069836;28;20411;-51
2021/07/12 08:35:33;;;;;;;7.17;6.47;;;;;;;;;;5072409;28;20447;-51
2021/07/12 08:37:59;;;;;;;5.80;5.30;;;;;;;;;;5073222;28;20420;-50
2021/07/12 08:40:28;;;;;;;5.23;4.90;;;;;;;;;;5073269;28;20400;-51
2021/07/12 08:42:54;;;;;;;5.40;4.80;;;;;;;;;;5073091;28;20393;-51
2021/07/12 08:45:21;;;;;;;5.43;4.90;;;;;;;;;;5072835;28;20439;-51
2021/07/12 08:47:47;;;;;;;4.70;4.40;;;;;;;;;;5072991;28;20424;-51
2021/07/12 08:50:13;;;;;;;5.80;4.13;;;;;;;;;;5073184;28;20483;-51
2021/07/12 08:52:43;;;;;;;8.43;7.73;;;;;;;;;;5072959;28;20454;-51
2021/07/12 08:55:10;;;;;;;11.03;9.93;;;;;;;;;;5072752;28;20447;-51
2021/07/12 08:57:36;;;;;;;3.67;3.37;;;;;;;;;;5072626;28;20582;-51
2021/07/12 09:00:01;;;;;;;3.97;3.77;;;;;;;;;;5073218;28;20878;-53
2021/07/12 09:02:28;;;;;;;4.00;3.63;;;;;;;;;;5072889;28;20397;-51
2021/07/12 09:04:55;;;;;;;14.83;10.70;;;;;;;;;;5072580;28;20412;-51
2021/07/12 09:07:22;;;;;;;4.10;3.80;;;;;;;;;;5072544;28;20952;-52
2021/07/12 09:10:02;;;;;;;4.10;3.90;;;;;;;;;;5072540;28;20487;-51
2021/07/12 09:12:39;;;;;;;4.40;4.10;;;;;;;;;;5072762;28;20457;-53
2021/07/12 09:15:09;;;;;;;4.30;4.00;;;;;;;;;;5072251;28;20462;-51
2021/07/12 09:17:36;;;;;;;5.37;4.97;;;;;;;;;;5072509;28;20497;-51
2021/07/12 09:20:04;;;;;;;4.20;3.90;;;;;;;;;;5072521;28;20435;-51
2021/07/12 09:22:31;;;;;;;5.07;4.67;;;;;;;;;;5072552;28;20397;-52
2021/07/12 09:25:00;;;;;;;5.20;4.80;;;;;;;;;;5072014;28;20487;-52
2021/07/12 09:27:27;;;;;;;4.60;4.30;;;;;;;;;;5072301;28;21058;-51
2021/07/12 09:29:54;;;;;;;5.10;4.70;;;;;;;;;;5072379;28;20440;-51
2021/07/12 09:32:22;;;;;;;4.07;3.80;;;;;;;;;;5072276;28;20401;-53
2021/07/12 09:34:48;;;;;;;4.33;4.03;;;;;;;;;;5072042;28;20788;-52
2021/07/12 09:37:18;;;;;;;4.60;4.30;;;;;;;;;;5072023;28;20908;-52
2021/07/12 09:39:45;;;;;;;5.60;4.50;;;;;;;;;;5072352;28;20897;-51
2021/07/12 09:42:13;;;;;;;6.53;6.03;;;;;;;;;;5071984;28;20768;-51
2021/07/12 09:44:43;;;;;;;4.63;4.33;;;;;;;;;;5071964;28;20405;-51
2021/07/12 09:47:15;;;;;;;4.13;3.83;;;;;;;;;;5071881;28;20507;-51
2021/07/12 09:49:41;;;;;;;4.50;4.20;;;;;;;;;;5072023;28;20415;-52
2021/07/12 09:52:12;;;;;;;5.00;4.70;;;;;;;;;;5072010;28;20404;-51
2021/07/12 09:54:39;;;;;;;4.33;4.03;;;;;;;;;;5071782;28;20456;-52
2021/07/12 09:57:19;;;;;;;5.80;5.20;;;;;;;;;;5071753;28;20926;-52
2021/07/12 09:59:55;;;;;;;4.30;4.10;;;;;;;;;;5071846;28;20786;-51
2021/07/12 10:02:22;;;;;;;6.20;4.27;;;;;;;;;;5071579;28;20403;-52
2021/07/12 10:04:50;;;;;;;4.50;4.10;;;;;;;;;;5071529;28;20400;-51
2021/07/12 10:07:16;;;;;;;3.50;3.30;;;;;;;;;;5071552;28;20957;-52
2021/07/12 10:09:42;;;;;;;3.57;3.47;;;;;;;;;;5071541;28;20408;-52
2021/07/12 10:12:08;;;;;;;3.17;2.87;;;;;;;;;;5071488;28;20415;-51
2021/07/12 10:14:34;;;;;;;7.83;3.40;;;;;;;;;;5071067;28;20448;-51
2021/07/12 10:17:02;;;;;;;3.17;3.00;;;;;;;;;;5071131;28;20436;-51
2021/07/12 10:19:28;;;;;;;3.50;3.30;;;;;;;;;;5071529;28;20411;-51
2021/07/12 10:21:54;;;;;;;3.97;3.67;;;;;;;;;;5071397;28;20764;-51
2021/07/12 10:24:25;;;;;;;4.80;3.10;;;;;;;;;;5071241;28;20181;-51
2021/07/12 10:26:52;;;;;;;3.50;3.30;;;;;;;;;;5071458;28;20794;-51
2021/07/12 10:29:23;;;;;;;3.10;2.93;;;;;;;;;;5071385;28;20901;-52
2021/07/12 10:32:03;;;;;;;3.93;2.90;;;;;;;;;;5071545;28;20863;-53
2021/07/12 10:34:32;;;;;;;3.37;3.17;;;;;;;;;;5070906;28;20447;-53
2021/07/12 10:37:04;;;;;;;4.20;4.00;;;;;;;;;;5071145;28;20417;-53
2021/07/12 10:39:48;;;;;;;3.80;3.60;;;;;;;;;;5070974;28;20396;-53
2021/07/12 10:42:34;;;;;;;2.77;2.57;;;;;;;;;;5071038;28;20415;-54
2021/07/12 10:45:10;;;;;;;3.17;2.70;;;;;;;;;;5070579;28;20840;-53
2021/07/12 10:47:50;;;;;;;3.37;3.17;;;;;;;;;;5071005;28;20503;-53
2021/07/12 10:50:51;;;;;;;3.43;3.33;;;;;;;;;;5070817;28;20397;-53
2021/07/12 10:53:23;;;;;;;3.47;3.27;;;;;;;;;;4989186;28;20415;-54
2021/07/12 10:55:58;;;;;;;3.73;3.43;;;;;;;;;;5057051;28;20467;-53
2021/07/12 10:58:27;;;;;;;2.90;2.70;;;;;;;;;;5068022;28;20420;-53
2021/07/12 11:00:54;;;;;;;3.23;3.03;;;;;;;;;;5058545;28;20457;-53
2021/07/12 11:03:38;;;;;;;3.43;3.30;;;;;;;;;;5059929;28;20467;-53
2021/07/12 11:06:05;;;;;;;2.90;2.80;;;;;;;;;;5053038;28;20398;-52
2021/07/12 11:08:43;;;;;;;3.23;3.00;;;;;;;;;;5053241;28;20439;-53
2021/07/12 11:11:10;;;;;;;3.60;3.30;;;;;;;;;;5069664;28;20400;-52
2021/07/12 11:13:53;;;;;;;4.83;3.97;;;;;;;;;;5068228;28;20881;-52
2021/07/12 11:16:20;;;;;;;3.70;3.50;;;;;;;;;;5058313;28;20819;-53
2021/07/12 11:18:47;;;;;;;3.60;3.40;;;;;;;;;;5050460;28;20397;-52
2021/07/12 11:21:14;;;;;;;3.80;3.60;;;;;;;;;;5031906;28;20402;-53
2021/07/12 11:23:50;;;;;;;3.03;2.73;;;;;;;;;;5051970;28;20488;-54
2021/07/12 11:26:19;;;;;;;3.43;3.23;;;;;;;;;;5065852;28;20400;-53
2021/07/12 11:28:46;;;;;;;3.83;3.50;;;;;;;;;;5058188;28;20424;-53
2021/07/12 11:31:30;;;;;;;3.00;2.80;;;;;;;;;;5070481;28;20510;-53
2021/07/12 11:33:59;;;;;;;3.03;2.83;;;;;;;;;;5051954;28;20544;-54
2021/07/12 11:36:25;;;;;;;9.50;2.93;;;;;;;;;;5049769;28;20424;-53
2021/07/12 11:38:51;;;;;;;3.10;2.80;;;;;;;;;;5055443;28;20392;-53
2021/07/12 11:41:22;;;;;;;2.93;2.77;;;;;;;;;;5038974;28;20416;-54
2021/07/12 11:44:05;;;;;;;3.70;3.40;;;;;;;;;;5064695;28;20416;-53
2021/07/12 11:46:32;;;;;;;3.93;3.70;;;;;;;;;;5070124;28;20416;-53
2021/07/12 11:49:05;;;;;;;3.20;3.00;;;;;;;;;;5069101;28;20405;-51
2021/07/12 11:51:31;;;;;;;4.27;3.97;;;;;;;;;;5068919;28;20951;-51
2021/07/12 11:53:57;;;;;;;3.57;3.37;;;;;;;;;;5069107;28;20392;-52
2021/07/12 11:56:23;;;;;;;5.17;3.20;;;;;;;;;;5069129;28;20412;-51
2021/07/12 11:58:56;;;;;;;3.63;3.43;;;;;;;;;;5069434;28;21250;-51
2021/07/12 12:01:22;;;;;;;3.97;3.67;;;;;;;;;;5069051;28;20550;-51
2021/07/12 12:03:48;;;;;;;3.97;3.77;;;;;;;;;;5058793;28;20489;-53
2021/07/12 12:06:23;;;;;;;4.10;3.63;;;;;;;;;;5051682;28;20420;-52
2021/07/12 12:08:58;;;;;;;4.20;3.90;;;;;;;;;;5055039;28;20450;-51
2021/07/12 12:11:33;;;;;;;5.53;4.33;;;;;;;;;;5055190;28;20400;-52
2021/07/12 12:13:59;;;;;;;3.83;3.50;;;;;;;;;;5051749;28;20887;-52
2021/07/12 12:16:29;;;;;;;3.73;3.53;;;;;;;;;;5051657;28;20440;-51
2021/07/12 12:18:55;;;;;;;3.13;3.03;;;;;;;;;;5056041;28;20447;-51
2021/07/12 12:21:26;;;;;;;3.53;3.33;;;;;;;;;;5072876;28;20483;-51
2021/07/12 12:23:53;;;;;;;3.33;3.13;;;;;;;;;;5071676;28;20400;-54
2021/07/12 12:26:26;;;;;;;3.43;3.23;;;;;;;;;;5066881;28;20404;-52
2021/07/12 12:28:54;;;;;;;4.03;3.73;;;;;;;;;;5072356;28;20400;-52
2021/07/12 12:31:30;;;;;;;3.23;3.03;;;;;;;;;;5071801;28;20753;-52
2021/07/12 12:33:58;;;;;;;3.50;3.30;;;;;;;;;;5066827;28;20900;-51
2021/07/12 12:36:26;;;;;;;3.50;3.30;;;;;;;;;;5054907;28;20496;-51
2021/07/12 12:39:13;;;;;;;6.30;4.00;;;;;;;;;;5063720;28;20446;-52
2021/07/12 12:41:50;;;;;;;3.03;2.87;;;;;;;;;;5040230;28;20456;-52
2021/07/12 12:44:18;;;;;;;2.83;2.67;;;;;;;;;;5052977;28;20460;-51
2021/07/12 12:46:51;;;;;;;3.77;3.57;;;;;;;;;;5053129;28;20425;-51
2021/07/12 12:49:19;;;;;;;3.77;3.50;;;;;;;;;;5053322;28;20504;-51
2021/07/12 12:51:52;;;;;;;3.20;3.00;;;;;;;;;;5052667;28;20950;-53
2021/07/12 12:54:18;;;;;;;3.80;3.50;;;;;;;;;;5052824;28;20445;-53
2021/07/12 12:56:52;;;;;;;3.73;3.40;;;;;;;;;;5052713;28;20413;-51
2021/07/12 12:59:28;;;;;;;3.20;3.00;;;;;;;;;;5053066;28;20496;-52
2021/07/12 13:02:00;;;;;;;3.13;2.90;;;;;;;;;;5052960;28;20826;-51
2021/07/12 13:04:26;;;;;;;3.87;3.57;;;;;;;;;;5052803;28;20408;-51
2021/07/12 13:06:55;;;;;;;3.17;2.97;;;;;;;;;;5052306;28;20421;-51
2021/07/12 13:09:25;;;;;;;3.50;3.30;;;;;;;;;;5055695;28;20416;-52
2021/07/12 13:12:04;;;;;;;3.43;3.20;;;;;;;;;;5063138;28;20440;-51
2021/07/12 13:14:30;;;;;;;3.30;3.10;;;;;;;;;;5062636;28;20888;-51
2021/07/12 13:17:03;;;;;;;3.00;2.80;;;;;;;;;;5060035;28;20453;-51
2021/07/12 13:19:29;;;;;;;3.37;3.07;;;;;;;;;;5058107;28;20404;-52
2021/07/12 13:21:55;;;;;;;4.90;2.37;;;;;;;;;;5052250;28;20804;-51
2021/07/12 13:24:40;;;;;;;3.90;3.10;;;;;;;;;;5056327;28;20796;-51
2021/07/12 13:27:06;;;;;;;3.40;3.20;;;;;;;;;;5071596;28;20439;-51
2021/07/12 13:29:32;;;;;;;3.20;3.00;;;;;;;;;;5072485;28;20484;-51
2021/07/12 13:31:58;;;;;;;3.10;2.80;;;;;;;;;;5072576;28;20895;-51
2021/07/12 13:34:24;;;;;;;3.63;3.43;;;;;;;;;;5066515;28;20868;-53
2021/07/12 13:36:50;;;;;;;3.50;2.97;;;;;;;;;;5060655;28;20801;-52
2021/07/12 13:39:16;;;;;;;4.43;2.40;;;;;;;;;;5062542;28;20762;-52
2021/07/12 13:41:42;;;;;;;3.13;2.83;;;;;;;;;;5060957;28;20890;-52
2021/07/12 13:44:08;;;;;;;2.77;2.57;;;;;;;;;;5055974;28;20443;-51
2021/07/12 13:46:34;;;;;;;2.63;2.53;;;;;;;;;;5058166;28;20455;-51
2021/07/12 13:49:01;;;;;;;3.13;2.90;;;;;;;;;;5072146;28;20749;-51
2021/07/12 13:51:27;;;;;;;2.70;2.57;;;;;;;;;;5071106;28;20397;-51
2021/07/12 13:53:53;;;;;;;3.17;2.97;;;;;;;;;;5069542;28;20430;-51
2021/07/12 13:56:19;;;;;;;3.10;2.90;;;;;;;;;;5068676;28;20411;-52
2021/07/12 13:58:44;;;;;;;3.40;3.20;;;;;;;;;;5069894;28;20448;-51
2021/07/12 14:01:10;;;;;;;3.90;3.60;;;;;;;;;;5069802;28;20396;-52
2021/07/12 14:03:36;;;;;;;3.20;3.00;;;;;;;;;;5069642;28;20400;-50
2021/07/12 14:06:02;;;;;;;3.60;3.30;;;;;;;;;;5070002;28;20411;-51
2021/07/12 14:08:28;;;;;;;2.90;2.70;;;;;;;;;;5071658;28;20435;-50
2021/07/12 14:10:55;;;;;;;3.17;2.97;;;;;;;;;;5071683;28;20423;-51
2021/07/12 14:13:21;;;;;;;3.23;3.03;;;;;;;;;;5071593;28;20397;-52
2021/07/12 14:15:47;;;;;;;3.60;3.30;;;;;;;;;;5071100;28;20988;-50
2021/07/12 14:18:14;;;;;;;3.40;3.03;;;;;;;;;;5071305;28;20475;-50
2021/07/12 14:20:40;;;;;;;5.67;3.43;;;;;;;;;;5071106;28;20477;-50
2021/07/12 14:23:06;;;;;;;3.17;3.00;;;;;;;;;;5071587;28;20438;-51
2021/07/12 14:25:32;;;;;;;3.20;3.00;;;;;;;;;;5071008;28;20470;-50
2021/07/12 14:27:58;;;;;;;4.63;3.70;;;;;;;;;;5071594;28;20637;-50
2021/07/12 14:30:24;;;;;;;2.90;2.70;;;;;;;;;;5071196;28;20442;-50
2021/07/12 14:32:50;;;;;;;3.77;3.57;;;;;;;;;;5070371;28;20409;-50
2021/07/12 14:35:16;;;;;;;4.23;3.33;;;;;;;;;;5070543;28;20448;-50